Time;durP1;ratioP1;P1;durP2;ratioP2;P2;SDS_P1;SDS_P2;PMS_P1;PMS_P2;Temp;Humidity;BMP_temperature;BMP_pressure;BME280_temperature;BME280_humidity;BME280_pressure;Samples;Min_cycle;Max_cycle;Signal;HPM_P1;HPM_P2
2023/10/09 00:00:30;;;;;;;;;;;21.30;64.90;;;;;;10121558;28;94641;-68
2023/10/09 00:05:31;;;;;;;;;;;21.30;65.00;;;;;;10111303;28;93550;-67
2023/10/09 00:10:45;;;;;;;;;;;21.30;64.90;;;;;;10094909;28;95480;-67
2023/10/09 00:15:53;;;;;;;;;;;21.30;65.00;;;;;;10120646;28;94426;-68
2023/10/09 00:21:11;;;;;;;;;;;21.20;64.90;;;;;;10094550;28;94390;-68
2023/10/09 00:26:16;;;;;;;;;;;21.20;65.00;;;;;;10105929;28;93399;-68
2023/10/09 00:31:33;;;;;;;;;;;21.20;65.00;;;;;;10100648;28;93649;-68
2023/10/09 00:36:49;;;;;;;;;;;21.20;65.00;;;;;;10089205;28;94683;-68
2023/10/09 00:41:54;;;;;;;;;;;21.20;65.00;;;;;;10120610;28;93504;-67
2023/10/09 00:46:58;;;;;;;;;;;21.20;65.10;;;;;;10111758;28;96005;-68
2023/10/09 00:52:01;;;;;;;;;;;21.20;65.00;;;;;;10119665;28;93271;-68
2023/10/09 00:57:07;;;;;;;;;;;21.20;65.00;;;;;;10110004;28;93957;-68
2023/10/09 01:07:25;;;;;;;;;;;21.20;65.00;;;;;;10173285;28;94133;-42
2023/10/09 01:12:28;;;;;;;;;;;21.20;65.00;;;;;;10204923;28;95484;-43
2023/10/09 01:17:36;;;;;;;;;;;21.20;65.00;;;;;;10185592;28;94517;-46
2023/10/09 01:22:40;;;;;;;;;;;21.20;64.90;;;;;;10205425;28;92667;-42
2023/10/09 01:27:43;;;;;;;;;;;21.20;64.90;;;;;;10204675;28;94787;-42
2023/10/09 01:32:45;;;;;;;;;;;21.20;64.90;;;;;;10203279;28;93462;-45
2023/10/09 01:37:50;;;;;;;;;;;21.20;64.90;;;;;;10191139;28;96949;-43
2023/10/09 01:42:53;;;;;;;;;;;21.20;64.90;;;;;;10195415;28;93124;-45
2023/10/09 01:47:55;;;;;;;;;;;21.20;64.80;;;;;;10190029;28;94653;-41
2023/10/09 01:53:01;;;;;;;;;;;21.20;64.80;;;;;;10199975;28;94551;-43
2023/10/09 01:58:23;;;;;;;;;;;21.20;64.90;;;;;;10202785;28;94033;-43
2023/10/09 02:03:29;;;;;;;;;;;21.20;64.80;;;;;;10202748;28;94706;-66
2023/10/09 02:08:35;;;;;;;;;;;21.20;64.90;;;;;;10202316;28;94807;-43
2023/10/09 02:13:41;;;;;;;;;;;21.20;64.80;;;;;;10198157;28;92926;-46
2023/10/09 02:19:07;;;;;;;;;;;21.20;64.90;;;;;;10201761;28;94473;-45
2023/10/09 02:24:09;;;;;;;;;;;21.20;65.00;;;;;;10201098;28;94530;-46
2023/10/09 02:34:16;;;;;;;;;;;21.20;65.00;;;;;;10200691;28;93428;-43
2023/10/09 02:39:28;;;;;;;;;;;21.20;65.10;;;;;;10202674;28;93942;-44
2023/10/09 02:44:32;;;;;;;;;;;21.20;65.10;;;;;;10201855;28;94580;-48
2023/10/09 02:49:34;;;;;;;;;;;21.20;65.20;;;;;;10202201;28;93539;-44
2023/10/09 02:54:41;;;;;;;;;;;21.10;65.20;;;;;;10200738;28;93677;-42
2023/10/09 02:59:44;;;;;;;;;;;21.10;65.20;;;;;;10202380;28;94675;-44
2023/10/09 03:04:47;;;;;;;;;;;21.10;65.20;;;;;;10198269;28;92705;-42
2023/10/09 03:09:49;;;;;;;;;;;21.10;65.30;;;;;;10199701;28;93540;-42
2023/10/09 03:14:51;;;;;;;;;;;21.10;65.20;;;;;;10178750;28;94579;-42
2023/10/09 03:19:54;;;;;;;;;;;21.10;65.30;;;;;;10196408;28;95825;-47
2023/10/09 03:24:56;;;;;;;;;;;21.10;65.30;;;;;;10183317;28;93644;-46
2023/10/09 03:29:58;;;;;;;;;;;21.10;65.40;;;;;;10200735;28;93492;-42
2023/10/09 03:35:00;;;;;;;;;;;21.10;65.40;;;;;;10201962;28;93325;-44
2023/10/09 03:40:03;;;;;;;;;;;21.10;65.50;;;;;;10183985;28;93422;-44
2023/10/09 03:45:12;;;;;;;;;;;21.10;65.60;;;;;;10197519;28;94615;-42
2023/10/09 03:50:26;;;;;;;;;;;21.00;65.50;;;;;;10188771;28;94496;-43
2023/10/09 03:55:28;;;;;;;;;;;21.00;65.60;;;;;;10201918;28;93730;-46
2023/10/09 04:00:31;;;;;;;;;;;21.00;65.60;;;;;;10202936;28;94689;-44
2023/10/09 04:05:33;;;;;;;;;;;21.00;65.70;;;;;;10203513;28;94432;-44
2023/10/09 04:10:50;;;;;;;;;;;21.00;65.70;;;;;;10205135;28;95875;-42
2023/10/09 04:15:56;;;;;;;;;;;21.00;65.70;;;;;;10204300;28;94016;-44
2023/10/09 04:26:20;;;;;;;;;;;21.00;65.80;;;;;;10197250;28;94493;-47
2023/10/09 04:31:31;;;;;;;;;;;21.00;65.70;;;;;;10194563;28;94048;-43
2023/10/09 04:36:46;;;;;;;;;;;21.00;65.70;;;;;;10186153;28;93389;-47
2023/10/09 04:52:51;;;;;;;;;;;21.10;65.70;;;;;;10199799;28;94044;-44
2023/10/09 05:02:54;;;;;;;;;;;21.10;65.70;;;;;;10201481;28;95818;-43
2023/10/09 05:07:57;;;;;;;;;;;21.10;65.70;;;;;;10201333;28;94481;-44
2023/10/09 05:12:58;;;;;;;;;;;21.10;65.70;;;;;;10203537;28;93429;-44
2023/10/09 05:18:09;;;;;;;;;;;21.10;65.70;;;;;;10204647;28;94702;-42
2023/10/09 05:23:23;;;;;;;;;;;21.10;65.90;;;;;;10202000;28;94483;-43
2023/10/09 05:28:25;;;;;;;;;;;21.10;65.90;;;;;;10198139;28;94625;-43
2023/10/09 05:33:33;;;;;;;;;;;21.10;65.80;;;;;;10192476;28;93525;-42
2023/10/09 05:38:35;;;;;;;;;;;21.10;65.70;;;;;;10190502;28;93109;-43
2023/10/09 05:49:09;;;;;;;;;;;21.10;66.90;;;;;;10201586;28;93952;-42
2023/10/09 06:04:57;;;;;;;;;;;21.20;67.50;;;;;;10193025;28;94628;-46
2023/10/09 06:10:10;;;;;;;;;;;21.20;67.60;;;;;;10196853;28;94309;-46
2023/10/09 06:15:19;;;;;;;;;;;21.20;67.80;;;;;;10178943;28;94550;-43
2023/10/09 06:25:53;;;;;;;;;;;21.20;67.80;;;;;;10140699;28;95197;-43
2023/10/09 06:30:55;;;;;;;;;;;21.30;68.20;;;;;;10204714;28;93401;-42
2023/10/09 06:36:08;;;;;;;;;;;21.30;68.00;;;;;;10182676;28;94504;-42
2023/10/09 06:41:34;;;;;;;;;;;21.30;68.10;;;;;;10204863;28;93773;-42
2023/10/09 06:46:52;;;;;;;;;;;21.30;68.10;;;;;;10176132;28;95845;-45
2023/10/09 06:52:08;;;;;;;;;;;21.30;68.30;;;;;;10166693;28;93950;-41
2023/10/09 06:57:13;;;;;;;;;;;21.30;68.40;;;;;;10194886;28;94449;-46
2023/10/09 07:02:27;;;;;;;;;;;21.20;68.20;;;;;;10200016;28;94523;-43
2023/10/09 07:07:34;;;;;;;;;;;21.20;68.10;;;;;;10200244;28;94175;-47
2023/10/09 07:12:42;;;;;;;;;;;21.20;68.30;;;;;;10200617;28;94803;-46
2023/10/09 07:17:45;;;;;;;;;;;21.10;68.20;;;;;;10200639;28;93870;-43
2023/10/09 07:22:56;;;;;;;;;;;21.10;68.10;;;;;;10179998;28;93241;-43
2023/10/09 07:27:59;;;;;;;;;;;21.10;68.20;;;;;;10195097;28;94528;-44
2023/10/09 07:38:19;;;;;;;;;;;21.10;68.20;;;;;;10196402;28;96212;-43
2023/10/09 07:43:39;;;;;;;;;;;21.10;68.10;;;;;;10189877;28;93590;-42
2023/10/09 07:48:53;;;;;;;;;;;21.10;68.10;;;;;;10198637;28;93459;-44
2023/10/09 07:54:06;;;;;;;;;;;21.10;68.00;;;;;;10189466;28;93590;-46
2023/10/09 07:59:11;;;;;;;;;;;21.10;67.10;;;;;;10200980;28;94543;-42
2023/10/09 08:04:14;;;;;;;;;;;21.10;67.50;;;;;;10201602;28;93427;-43
2023/10/09 08:09:17;;;;;;;;;;;21.10;65.90;;;;;;10184094;28;93452;-42
2023/10/09 08:19:51;;;;;;;;;;;21.20;65.00;;;;;;10196403;28;93412;-44
2023/10/09 08:24:56;;;;;;;;;;;21.20;64.50;;;;;;10190464;28;93919;-44
2023/10/09 08:35:29;;;;;;;;;;;21.30;63.90;;;;;;10200188;28;93282;-44
2023/10/09 08:40:38;;;;;;;;;;;21.30;63.50;;;;;;10195771;28;93511;-45
2023/10/09 08:45:44;;;;;;;;;;;21.30;63.30;;;;;;10201743;28;93444;-44
2023/10/09 08:50:49;;;;;;;;;;;21.30;63.00;;;;;;10180373;28;95118;-42
2023/10/09 08:55:51;;;;;;;;;;;21.30;62.70;;;;;;10197923;28;94276;-44
2023/10/09 09:00:55;;;;;;;;;;;21.30;62.50;;;;;;10188913;28;93443;-41
2023/10/09 09:06:00;;;;;;;;;;;21.30;62.20;;;;;;10206872;28;94034;-43
2023/10/09 09:11:12;;;;;;;;;;;21.30;62.10;;;;;;10200040;28;94685;-46
2023/10/09 09:16:16;;;;;;;;;;;21.30;61.90;;;;;;10182976;28;94717;-42
2023/10/09 09:21:22;;;;;;;;;;;21.30;61.70;;;;;;10196291;28;96116;-45
2023/10/09 09:26:37;;;;;;;;;;;21.30;61.50;;;;;;10183674;28;93772;-44
2023/10/09 09:31:51;;;;;;;;;;;21.30;61.30;;;;;;10205106;28;94626;-44
2023/10/09 09:36:54;;;;;;;;;;;21.20;61.10;;;;;;10204712;28;94511;-43
2023/10/09 09:41:58;;;;;;;;;;;21.20;61.00;;;;;;10203056;28;94501;-43
2023/10/09 09:47:00;;;;;;;;;;;21.20;60.80;;;;;;10204545;28;93506;-42
2023/10/09 09:52:03;;;;;;;;;;;21.20;60.70;;;;;;10194103;28;94293;-42
2023/10/09 09:57:08;;;;;;;;;;;21.20;60.60;;;;;;10205212;28;92747;-41
2023/10/09 10:02:20;;;;;;;;;;;21.20;60.50;;;;;;10194745;28;94469;-44
2023/10/09 10:07:24;;;;;;;;;;;21.20;60.40;;;;;;10193569;28;93067;-42
2023/10/09 10:12:46;;;;;;;;;;;21.20;60.20;;;;;;10202236;28;95800;-43
2023/10/09 10:18:00;;;;;;;;;;;21.20;60.10;;;;;;10184726;28;94457;-44
2023/10/09 10:23:19;;;;;;;;;;;21.20;60.00;;;;;;10192800;28;94288;-44
2023/10/09 10:28:28;;;;;;;;;;;21.20;60.00;;;;;;10201934;28;93979;-43
2023/10/09 10:33:53;;;;;;;;;;;21.20;60.00;;;;;;10203441;28;93606;-43
2023/10/09 10:39:09;;;;;;;;;;;21.20;59.90;;;;;;10198953;28;94822;-46
2023/10/09 10:49:37;;;;;;;;;;;21.20;59.70;;;;;;10203628;28;93850;-42
2023/10/09 10:59:41;;;;;;;;;;;21.20;60.00;;;;;;10203844;28;93495;-44
2023/10/09 11:04:53;;;;;;;;;;;21.20;60.60;;;;;;10198240;28;96911;-43
2023/10/09 11:20:26;;;;;;;;;;;21.20;61.30;;;;;;10212132;28;93596;-42
2023/10/09 11:25:30;;;;;;;;;;;21.10;61.40;;;;;;10201915;28;94110;-46
2023/10/09 11:30:32;;;;;;;;;;;21.10;61.70;;;;;;10200489;28;93396;-44
2023/10/09 11:35:35;;;;;;;;;;;21.10;61.80;;;;;;10202449;28;93516;-41
2023/10/09 11:41:05;;;;;;;;;;;21.10;62.10;;;;;;10202554;28;93839;-49
2023/10/09 11:46:36;;;;;;;;;;;21.10;62.30;;;;;;10197264;28;93841;-44
2023/10/09 11:51:34;;;;;;;;;;;21.10;62.50;;;;;;10202506;28;94943;-41
2023/10/09 11:56:35;;;;;;;;;;;21.10;62.60;;;;;;10196889;28;97073;-42
2023/10/09 12:01:42;;;;;;;;;;;21.10;62.70;;;;;;10198991;28;94561;-43
2023/10/09 12:06:44;;;;;;;;;;;21.10;62.90;;;;;;10200411;28;93326;-41
2023/10/09 12:11:52;;;;;;;;;;;21.10;63.00;;;;;;10201207;28;92728;-42
2023/10/09 12:17:08;;;;;;;;;;;21.10;63.10;;;;;;10180595;28;95088;-41
2023/10/09 12:22:15;;;;;;;;;;;21.10;63.30;;;;;;10197239;28;94362;-44
2023/10/09 12:27:20;;;;;;;;;;;21.10;63.60;;;;;;10206923;28;93443;-44
2023/10/09 12:32:22;;;;;;;;;;;21.00;63.30;;;;;;10208856;28;93879;-44
2023/10/09 12:37:23;;;;;;;;;;;21.10;63.60;;;;;;10198915;28;94191;-43
2023/10/09 12:42:28;;;;;;;;;;;21.00;63.70;;;;;;10205884;28;93592;-43
2023/10/09 12:47:30;;;;;;;;;;;21.00;63.80;;;;;;10202669;28;97530;-44
2023/10/09 12:52:36;;;;;;;;;;;21.00;63.80;;;;;;10206220;28;93834;-45
2023/10/09 12:57:38;;;;;;;;;;;21.00;63.90;;;;;;10198275;28;94672;-45
2023/10/09 13:02:44;;;;;;;;;;;21.00;63.90;;;;;;10205138;28;93222;-44
2023/10/09 13:07:46;;;;;;;;;;;21.00;63.90;;;;;;10199437;28;96926;-42
2023/10/09 13:12:55;;;;;;;;;;;21.00;64.00;;;;;;10192453;28;94051;-42
2023/10/09 13:17:57;;;;;;;;;;;21.00;64.10;;;;;;10204172;28;93431;-43
2023/10/09 13:22:59;;;;;;;;;;;21.00;64.30;;;;;;10206346;28;94171;-41
2023/10/09 13:28:03;;;;;;;;;;;21.00;64.30;;;;;;10187716;28;93251;-43
2023/10/09 13:33:06;;;;;;;;;;;21.00;64.50;;;;;;10203588;28;93414;-42
2023/10/09 13:38:09;;;;;;;;;;;20.90;64.50;;;;;;10202890;28;97099;-44
2023/10/09 13:43:16;;;;;;;;;;;21.00;64.50;;;;;;10204214;28;94037;-41
2023/10/09 13:48:20;;;;;;;;;;;21.00;64.60;;;;;;10197754;28;94507;-42
2023/10/09 13:53:26;;;;;;;;;;;21.00;64.60;;;;;;10202242;28;93561;-42
2023/10/09 13:58:31;;;;;;;;;;;20.90;64.60;;;;;;10200825;28;92956;-41
2023/10/09 14:03:33;;;;;;;;;;;20.90;64.70;;;;;;10204106;28;93556;-42
2023/10/09 14:08:35;;;;;;;;;;;21.00;64.80;;;;;;10204831;28;93447;-43
2023/10/09 14:13:37;;;;;;;;;;;21.00;64.90;;;;;;10203970;28;93267;-44
2023/10/09 14:18:39;;;;;;;;;;;20.90;64.90;;;;;;10204151;28;93528;-41
2023/10/09 14:23:45;;;;;;;;;;;20.90;64.90;;;;;;10184774;28;94419;-43
2023/10/09 14:28:48;;;;;;;;;;;21.00;65.00;;;;;;10201774;28;96827;-42
2023/10/09 14:33:52;;;;;;;;;;;21.00;65.10;;;;;;10195283;28;94608;-41
2023/10/09 14:38:55;;;;;;;;;;;21.00;65.10;;;;;;10203446;28;93233;-45
2023/10/09 14:43:58;;;;;;;;;;;21.00;65.10;;;;;;10202696;28;94451;-42
2023/10/09 14:49:00;;;;;;;;;;;21.00;65.20;;;;;;10200189;28;93877;-45
2023/10/09 14:54:07;;;;;;;;;;;21.00;65.10;;;;;;10194010;28;94096;-46
2023/10/09 14:59:11;;;;;;;;;;;21.00;65.20;;;;;;10196156;28;93824;-46
2023/10/09 15:04:14;;;;;;;;;;;21.00;65.20;;;;;;10194482;28;93976;-41
2023/10/09 15:09:24;;;;;;;;;;;21.00;65.20;;;;;;10181928;28;93560;-44
2023/10/09 15:14:26;;;;;;;;;;;21.00;65.20;;;;;;10194122;28;94747;-42
2023/10/09 15:19:31;;;;;;;;;;;21.00;65.20;;;;;;10198419;28;96792;-43
2023/10/09 15:24:33;;;;;;;;;;;21.00;65.30;;;;;;10197729;28;93155;-46
2023/10/09 15:29:37;;;;;;;;;;;21.00;65.30;;;;;;10203269;28;93481;-45
2023/10/09 15:34:38;;;;;;;;;;;21.00;65.30;;;;;;10200752;28;93778;-44
2023/10/09 15:39:42;;;;;;;;;;;21.00;65.40;;;;;;10202426;28;94486;-42
2023/10/09 15:44:47;;;;;;;;;;;21.00;65.40;;;;;;10202464;28;94419;-42
2023/10/09 15:49:52;;;;;;;;;;;21.00;65.40;;;;;;10201710;28;94446;-43
2023/10/09 15:54:54;;;;;;;;;;;21.00;65.50;;;;;;10199972;28;94020;-41
2023/10/09 15:59:57;;;;;;;;;;;21.00;65.50;;;;;;10214828;28;94534;-43
2023/10/09 16:05:00;;;;;;;;;;;21.00;65.60;;;;;;10211948;28;93394;-43
2023/10/09 16:10:05;;;;;;;;;;;21.00;65.60;;;;;;10211444;28;96838;-43
2023/10/09 16:15:08;;;;;;;;;;;20.90;65.60;;;;;;10211610;28;92714;-42
2023/10/09 16:20:15;;;;;;;;;;;21.00;65.70;;;;;;10204411;28;93555;-45
2023/10/09 16:25:20;;;;;;;;;;;20.90;65.80;;;;;;10214416;28;93411;-45
2023/10/09 16:30:22;;;;;;;;;;;20.90;65.80;;;;;;10202704;28;93432;-44
2023/10/09 16:35:24;;;;;;;;;;;20.90;65.90;;;;;;10193876;28;94283;-46
2023/10/09 16:40:26;;;;;;;;;;;20.90;66.00;;;;;;10205294;28;94576;-46
2023/10/09 16:45:28;;;;;;;;;;;20.90;66.00;;;;;;10213766;28;92749;-44
2023/10/09 16:50:31;;;;;;;;;;;20.90;66.00;;;;;;10209726;28;93997;-45
2023/10/09 16:55:33;;;;;;;;;;;20.90;66.00;;;;;;10185170;28;94473;-43
2023/10/09 17:00:35;;;;;;;;;;;20.90;66.20;;;;;;10200945;28;96921;-43
2023/10/09 17:05:55;;;;;;;;;;;20.90;66.30;;;;;;10213310;28;94451;-42
2023/10/09 17:10:57;;;;;;;;;;;20.90;66.30;;;;;;10205626;28;94937;-43
2023/10/09 17:15:59;;;;;;;;;;;20.90;66.30;;;;;;10196047;28;93657;-47
2023/10/09 17:21:00;;;;;;;;;;;20.90;66.30;;;;;;10185421;28;93456;-46
2023/10/09 17:26:03;;;;;;;;;;;20.90;66.40;;;;;;10205069;28;93420;-47
2023/10/09 17:31:05;;;;;;;;;;;20.90;66.40;;;;;;10187042;28;94429;-43
2023/10/09 17:36:06;;;;;;;;;;;20.80;66.30;;;;;;10196115;28;93668;-44
2023/10/09 17:41:08;;;;;;;;;;;20.80;66.20;;;;;;10205409;28;93474;-45
2023/10/09 17:46:11;;;;;;;;;;;20.90;66.20;;;;;;10203537;28;93712;-43
2023/10/09 17:51:14;;;;;;;;;;;20.90;66.10;;;;;;10205126;28;96096;-46
2023/10/09 17:56:19;;;;;;;;;;;20.90;66.20;;;;;;10174658;28;93749;-48
2023/10/09 18:01:24;;;;;;;;;;;20.90;66.30;;;;;;10212716;28;94778;-44
2023/10/09 18:06:27;;;;;;;;;;;20.90;66.30;;;;;;10177056;28;93461;-45
2023/10/09 18:11:29;;;;;;;;;;;20.90;66.40;;;;;;10204077;28;93461;-47
2023/10/09 18:16:32;;;;;;;;;;;20.90;66.40;;;;;;10179462;28;94453;-48
2023/10/09 18:21:41;;;;;;;;;;;20.90;66.40;;;;;;10186274;28;93524;-45
2023/10/09 18:26:46;;;;;;;;;;;20.90;66.50;;;;;;10186849;28;93728;-44
2023/10/09 18:31:49;;;;;;;;;;;21.00;66.60;;;;;;10202462;28;93321;-43
2023/10/09 18:36:52;;;;;;;;;;;21.00;66.60;;;;;;10201665;28;95689;-46
2023/10/09 18:41:54;;;;;;;;;;;21.00;66.80;;;;;;10200935;28;96931;-45
2023/10/09 18:46:56;;;;;;;;;;;21.00;66.60;;;;;;10201864;28;93430;-42
2023/10/09 18:51:59;;;;;;;;;;;21.00;65.80;;;;;;10202943;28;93527;-43
2023/10/09 18:57:03;;;;;;;;;;;21.00;65.40;;;;;;10202221;28;93285;-41
2023/10/09 19:02:06;;;;;;;;;;;21.10;65.00;;;;;;10196004;28;94132;-44
2023/10/09 19:07:08;;;;;;;;;;;21.10;64.60;;;;;;10182748;28;94799;-42
2023/10/09 19:12:09;;;;;;;;;;;21.10;64.60;;;;;;10201817;28;94225;-43
2023/10/09 19:17:11;;;;;;;;;;;21.10;64.80;;;;;;10201705;28;92689;-42
2023/10/09 19:22:15;;;;;;;;;;;21.10;65.00;;;;;;10202252;28;94149;-44
2023/10/09 19:27:20;;;;;;;;;;;21.10;65.10;;;;;;10199849;28;93279;-44
2023/10/09 19:32:22;;;;;;;;;;;21.10;65.30;;;;;;10187616;28;97106;-44
2023/10/09 19:37:24;;;;;;;;;;;21.00;65.40;;;;;;10196003;28;94338;-42
2023/10/09 19:42:26;;;;;;;;;;;21.00;65.50;;;;;;10201146;28;93456;-44
2023/10/09 19:47:28;;;;;;;;;;;21.00;65.70;;;;;;10202073;28;94095;-42
2023/10/09 19:52:30;;;;;;;;;;;21.10;65.70;;;;;;10200505;28;94495;-41
2023/10/09 19:57:33;;;;;;;;;;;21.00;65.70;;;;;;10185107;28;93392;-42
2023/10/09 20:02:35;;;;;;;;;;;21.00;65.90;;;;;;10190206;28;94737;-43
2023/10/09 20:07:38;;;;;;;;;;;21.00;66.00;;;;;;10192984;28;93567;-45
2023/10/09 20:12:41;;;;;;;;;;;21.00;66.00;;;;;;10199934;28;94187;-44
2023/10/09 20:17:43;;;;;;;;;;;21.00;66.10;;;;;;10200080;28;94084;-42
2023/10/09 20:22:45;;;;;;;;;;;21.00;66.20;;;;;;10174538;28;97003;-46
2023/10/09 20:27:49;;;;;;;;;;;21.00;66.20;;;;;;10182291;28;94040;-42
2023/10/09 20:32:54;;;;;;;;;;;21.00;66.30;;;;;;10198150;28;93895;-42
2023/10/09 20:38:01;;;;;;;;;;;21.00;66.40;;;;;;10188986;28;93449;-43
2023/10/09 20:43:03;;;;;;;;;;;21.00;66.40;;;;;;10193042;28;94777;-46
2023/10/09 20:48:07;;;;;;;;;;;21.00;66.40;;;;;;10196314;28;93523;-45
2023/10/09 20:53:09;;;;;;;;;;;21.00;66.60;;;;;;10204788;28;93833;-45
2023/10/09 20:58:10;;;;;;;;;;;21.00;66.70;;;;;;10208021;28;94239;-45
2023/10/09 21:03:15;;;;;;;;;;;20.90;66.60;;;;;;10189152;28;94467;-46
2023/10/09 21:08:18;;;;;;;;;;;20.90;66.40;;;;;;10199250;28;94587;-43
2023/10/09 21:13:19;;;;;;;;;;;20.90;65.60;;;;;;10200186;28;96977;-47
2023/10/09 21:18:21;;;;;;;;;;;20.90;65.00;;;;;;10205228;28;94392;-46
2023/10/09 21:23:23;;;;;;;;;;;21.00;64.50;;;;;;10188700;28;94071;-42
2023/10/09 21:28:25;;;;;;;;;;;21.00;64.10;;;;;;10193120;28;93946;-41
2023/10/09 21:33:28;;;;;;;;;;;21.00;63.70;;;;;;10199057;28;93989;-41
2023/10/09 21:38:30;;;;;;;;;;;21.00;63.40;;;;;;10205292;28;95095;-41
2023/10/09 21:43:32;;;;;;;;;;;21.00;63.00;;;;;;10205488;28;94422;-42
2023/10/09 21:48:34;;;;;;;;;;;21.00;62.70;;;;;;10203578;28;93151;-41
2023/10/09 21:53:36;;;;;;;;;;;21.10;62.40;;;;;;10192836;28;94140;-42
2023/10/09 21:58:38;;;;;;;;;;;21.10;62.10;;;;;;10191611;28;95444;-41
2023/10/09 22:03:41;;;;;;;;;;;21.10;61.90;;;;;;10209289;28;95924;-41
2023/10/09 22:08:44;;;;;;;;;;;21.10;61.60;;;;;;10191183;28;94623;-43
2023/10/09 22:13:46;;;;;;;;;;;21.10;61.30;;;;;;10203887;28;94250;-43
2023/10/09 22:18:51;;;;;;;;;;;21.10;61.20;;;;;;10202964;28;94797;-43
2023/10/09 22:24:17;;;;;;;;;;;21.10;61.00;;;;;;10197617;28;94188;-45
2023/10/09 22:29:20;;;;;;;;;;;21.10;60.70;;;;;;10183367;28;94842;-42
2023/10/09 22:34:22;;;;;;;;;;;21.10;60.60;;;;;;10203833;28;95374;-42
2023/10/09 22:39:33;;;;;;;;;;;21.10;60.40;;;;;;10194111;28;93742;-43
2023/10/09 22:44:38;;;;;;;;;;;21.10;60.20;;;;;;10193979;28;94812;-42
2023/10/09 22:49:41;;;;;;;;;;;21.10;60.00;;;;;;10202990;28;93089;-43
2023/10/09 22:54:45;;;;;;;;;;;21.10;59.90;;;;;;10191235;28;95767;-41
2023/10/09 22:59:51;;;;;;;;;;;21.10;59.80;;;;;;10193328;28;93684;-42
2023/10/09 23:05:03;;;;;;;;;;;21.10;59.70;;;;;;10187566;28;93650;-42
2023/10/09 23:10:14;;;;;;;;;;;21.10;59.60;;;;;;10202487;28;93442;-46
2023/10/09 23:15:32;;;;;;;;;;;21.10;59.50;;;;;;10199763;28;94531;-42
2023/10/09 23:20:48;;;;;;;;;;;21.10;59.30;;;;;;10202049;28;93722;-45
2023/10/09 23:25:53;;;;;;;;;;;21.10;59.20;;;;;;10201619;28;95298;-42
2023/10/09 23:30:56;;;;;;;;;;;21.00;59.00;;;;;;10198972;28;92177;-44
2023/10/09 23:36:04;;;;;;;;;;;21.00;58.90;;;;;;10184342;28;93367;-45
2023/10/09 23:41:12;;;;;;;;;;;21.00;58.90;;;;;;10199625;28;93367;-42
2023/10/09 23:46:17;;;;;;;;;;;21.00;58.70;;;;;;10191890;28;97388;-44
2023/10/09 23:51:20;;;;;;;;;;;21.00;58.60;;;;;;10180219;28;94827;-43
